sensor_id;sensor_type;location;lat;lon;timestamp;P1;durP1;ratioP1;P2;durP2;ratioP2
14100;SDS011;7127;49.372;8.166;2024-03-08T00:01:44;7.07;;;6.23;;
14100;SDS011;7127;49.372;8.166;2024-03-08T00:04:11;7.37;;;6.07;;
14100;SDS011;7127;49.372;8.166;2024-03-08T00:06:39;7.17;;;6.10;;
14100;SDS011;7127;49.372;8.166;2024-03-08T00:09:06;8.87;;;7.43;;
14100;SDS011;7127;49.372;8.166;2024-03-08T00:11:33;7.03;;;6.00;;
14100;SDS011;7127;49.372;8.166;2024-03-08T00:14:00;9.03;;;7.10;;
14100;SDS011;7127;49.372;8.166;2024-03-08T00:16:27;9.47;;;7.27;;
14100;SDS011;7127;49.372;8.166;2024-03-08T00:18:54;8.37;;;6.50;;
14100;SDS011;7127;49.372;8.166;2024-03-08T00:21:21;7.50;;;6.60;;
14100;SDS011;7127;49.372;8.166;2024-03-08T00:23:49;7.37;;;6.50;;
14100;SDS011;7127;49.372;8.166;2024-03-08T00:26:16;8.40;;;6.70;;
14100;SDS011;7127;49.372;8.166;2024-03-08T00:28:43;7.77;;;6.47;;
14100;SDS011;7127;49.372;8.166;2024-03-08T00:31:09;7.13;;;6.43;;
14100;SDS011;7127;49.372;8.166;2024-03-08T00:33:36;8.27;;;6.60;;
14100;SDS011;7127;49.372;8.166;2024-03-08T00:36:05;11.17;;;8.37;;
14100;SDS011;7127;49.372;8.166;2024-03-08T00:38:32;11.10;;;7.07;;
14100;SDS011;7127;49.372;8.166;2024-03-08T00:41:01;9.10;;;6.73;;
14100;SDS011;7127;49.372;8.166;2024-03-08T00:43:28;8.10;;;5.73;;
14100;SDS011;7127;49.372;8.166;2024-03-08T00:45:55;8.07;;;6.57;;
14100;SDS011;7127;49.372;8.166;2024-03-08T00:48:22;6.83;;;5.37;;
14100;SDS011;7127;49.372;8.166;2024-03-08T00:50:49;6.37;;;5.47;;
14100;SDS011;7127;49.372;8.166;2024-03-08T00:53:16;6.70;;;5.37;;
14100;SDS011;7127;49.372;8.166;2024-03-08T00:55:43;7.90;;;5.57;;
14100;SDS011;7127;49.372;8.166;2024-03-08T00:58:12;6.23;;;5.50;;
14100;SDS011;7127;49.372;8.166;2024-03-08T01:00:39;8.13;;;5.80;;
14100;SDS011;7127;49.372;8.166;2024-03-08T01:03:06;7.40;;;6.10;;
14100;SDS011;7127;49.372;8.166;2024-03-08T01:05:33;8.10;;;6.47;;
14100;SDS011;7127;49.372;8.166;2024-03-08T01:08:01;7.50;;;5.80;;
14100;SDS011;7127;49.372;8.166;2024-03-08T01:10:30;7.77;;;5.77;;
14100;SDS011;7127;49.372;8.166;2024-03-08T01:12:57;6.93;;;5.83;;
14100;SDS011;7127;49.372;8.166;2024-03-08T01:15:26;6.07;;;5.27;;
14100;SDS011;7127;49.372;8.166;2024-03-08T01:17:53;7.87;;;5.63;;
14100;SDS011;7127;49.372;8.166;2024-03-08T01:20:20;7.33;;;5.87;;
14100;SDS011;7127;49.372;8.166;2024-03-08T01:22:47;7.67;;;5.73;;
14100;SDS011;7127;49.372;8.166;2024-03-08T01:25:14;7.00;;;5.13;;
14100;SDS011;7127;49.372;8.166;2024-03-08T01:27:41;7.97;;;5.70;;
14100;SDS011;7127;49.372;8.166;2024-03-08T01:30:08;7.10;;;5.77;;
14100;SDS011;7127;49.372;8.166;2024-03-08T01:32:37;5.90;;;5.10;;
14100;SDS011;7127;49.372;8.166;2024-03-08T01:35:04;6.23;;;5.20;;
14100;SDS011;7127;49.372;8.166;2024-03-08T01:37:34;7.43;;;5.93;;
14100;SDS011;7127;49.372;8.166;2024-03-08T01:40:01;7.07;;;5.70;;
14100;SDS011;7127;49.372;8.166;2024-03-08T01:42:28;6.90;;;5.23;;
14100;SDS011;7127;49.372;8.166;2024-03-08T01:44:55;7.23;;;5.90;;
14100;SDS011;7127;49.372;8.166;2024-03-08T01:47:22;6.40;;;4.90;;
14100;SDS011;7127;49.372;8.166;2024-03-08T01:49:51;6.87;;;5.67;;
14100;SDS011;7127;49.372;8.166;2024-03-08T01:52:18;6.47;;;5.20;;
14100;SDS011;7127;49.372;8.166;2024-03-08T01:54:45;7.10;;;5.57;;
14100;SDS011;7127;49.372;8.166;2024-03-08T01:57:12;6.90;;;5.23;;
14100;SDS011;7127;49.372;8.166;2024-03-08T01:59:40;7.63;;;5.70;;
14100;SDS011;7127;49.372;8.166;2024-03-08T02:02:08;6.77;;;5.40;;
14100;SDS011;7127;49.372;8.166;2024-03-08T02:04:38;7.73;;;5.50;;
14100;SDS011;7127;49.372;8.166;2024-03-08T02:07:07;6.20;;;5.10;;
14100;SDS011;7127;49.372;8.166;2024-03-08T02:09:33;7.03;;;5.33;;
14100;SDS011;7127;49.372;8.166;2024-03-08T02:12:00;9.23;;;5.60;;
14100;SDS011;7127;49.372;8.166;2024-03-08T02:14:27;7.27;;;5.93;;
14100;SDS011;7127;49.372;8.166;2024-03-08T02:16:59;8.30;;;5.77;;
14100;SDS011;7127;49.372;8.166;2024-03-08T02:19:26;7.10;;;5.87;;
14100;SDS011;7127;49.372;8.166;2024-03-08T02:21:55;7.87;;;5.50;;
14100;SDS011;7127;49.372;8.166;2024-03-08T02:24:22;7.07;;;5.67;;
14100;SDS011;7127;49.372;8.166;2024-03-08T02:26:50;7.57;;;5.43;;
14100;SDS011;7127;49.372;8.166;2024-03-08T02:29:18;8.67;;;6.13;;
14100;SDS011;7127;49.372;8.166;2024-03-08T02:31:46;7.50;;;6.17;;
14100;SDS011;7127;49.372;8.166;2024-03-08T02:34:13;6.70;;;5.13;;
14100;SDS011;7127;49.372;8.166;2024-03-08T02:36:40;6.80;;;5.50;;
14100;SDS011;7127;49.372;8.166;2024-03-08T02:39:08;9.00;;;6.63;;
14100;SDS011;7127;49.372;8.166;2024-03-08T02:41:35;8.70;;;5.70;;
14100;SDS011;7127;49.372;8.166;2024-03-08T02:44:02;8.60;;;6.30;;
14100;SDS011;7127;49.372;8.166;2024-03-08T02:46:30;6.77;;;5.63;;
14100;SDS011;7127;49.372;8.166;2024-03-08T02:48:57;7.30;;;5.53;;
14100;SDS011;7127;49.372;8.166;2024-03-08T02:51:23;8.23;;;6.03;;
14100;SDS011;7127;49.372;8.166;2024-03-08T02:53:51;6.80;;;5.57;;
14100;SDS011;7127;49.372;8.166;2024-03-08T02:56:19;7.20;;;5.63;;
14100;SDS011;7127;49.372;8.166;2024-03-08T02:58:46;9.63;;;5.47;;
14100;SDS011;7127;49.372;8.166;2024-03-08T03:01:14;6.90;;;5.40;;
14100;SDS011;7127;49.372;8.166;2024-03-08T03:03:40;6.30;;;5.33;;
14100;SDS011;7127;49.372;8.166;2024-03-08T03:06:07;8.50;;;6.53;;
14100;SDS011;7127;49.372;8.166;2024-03-08T03:08:34;8.20;;;6.17;;
14100;SDS011;7127;49.372;8.166;2024-03-08T03:11:01;7.37;;;6.00;;
14100;SDS011;7127;49.372;8.166;2024-03-08T03:13:30;7.50;;;5.73;;
14100;SDS011;7127;49.372;8.166;2024-03-08T03:15:56;7.10;;;5.80;;
14100;SDS011;7127;49.372;8.166;2024-03-08T03:18:23;8.17;;;6.03;;
14100;SDS011;7127;49.372;8.166;2024-03-08T03:20:52;7.47;;;6.00;;
14100;SDS011;7127;49.372;8.166;2024-03-08T03:23:19;7.47;;;6.03;;
14100;SDS011;7127;49.372;8.166;2024-03-08T03:25:46;9.13;;;6.07;;
14100;SDS011;7127;49.372;8.166;2024-03-08T03:28:13;7.00;;;5.50;;
14100;SDS011;7127;49.372;8.166;2024-03-08T03:30:45;7.33;;;5.73;;
14100;SDS011;7127;49.372;8.166;2024-03-08T03:33:12;6.17;;;5.57;;
14100;SDS011;7127;49.372;8.166;2024-03-08T03:35:40;5.90;;;5.07;;
14100;SDS011;7127;49.372;8.166;2024-03-08T03:38:08;7.70;;;6.00;;
14100;SDS011;7127;49.372;8.166;2024-03-08T03:40:35;8.20;;;6.17;;
14100;SDS011;7127;49.372;8.166;2024-03-08T03:43:02;7.03;;;5.53;;
14100;SDS011;7127;49.372;8.166;2024-03-08T03:45:29;8.30;;;6.60;;
14100;SDS011;7127;49.372;8.166;2024-03-08T03:48:01;8.70;;;6.10;;
14100;SDS011;7127;49.372;8.166;2024-03-08T03:50:29;6.77;;;5.67;;
14100;SDS011;7127;49.372;8.166;2024-03-08T03:52:59;6.80;;;5.70;;
14100;SDS011;7127;49.372;8.166;2024-03-08T03:55:26;6.77;;;5.47;;
14100;SDS011;7127;49.372;8.166;2024-03-08T03:57:53;6.13;;;4.97;;
14100;SDS011;7127;49.372;8.166;2024-03-08T04:00:20;8.53;;;7.07;;
14100;SDS011;7127;49.372;8.166;2024-03-08T04:02:47;8.00;;;5.87;;
14100;SDS011;7127;49.372;8.166;2024-03-08T04:05:15;8.93;;;6.80;;
14100;SDS011;7127;49.372;8.166;2024-03-08T04:07:42;7.17;;;5.80;;
14100;SDS011;7127;49.372;8.166;2024-03-08T04:10:11;8.10;;;6.27;;
14100;SDS011;7127;49.372;8.166;2024-03-08T04:12:39;8.40;;;6.40;;
14100;SDS011;7127;49.372;8.166;2024-03-08T04:15:06;7.93;;;5.97;;
14100;SDS011;7127;49.372;8.166;2024-03-08T04:17:35;6.70;;;5.50;;
14100;SDS011;7127;49.372;8.166;2024-03-08T04:20:03;8.50;;;5.87;;
14100;SDS011;7127;49.372;8.166;2024-03-08T04:22:36;7.77;;;6.20;;
14100;SDS011;7127;49.372;8.166;2024-03-08T04:25:03;7.33;;;5.97;;
14100;SDS011;7127;49.372;8.166;2024-03-08T04:27:31;6.23;;;5.40;;
14100;SDS011;7127;49.372;8.166;2024-03-08T04:29:59;8.27;;;5.40;;
14100;SDS011;7127;49.372;8.166;2024-03-08T04:32:26;6.40;;;5.20;;
14100;SDS011;7127;49.372;8.166;2024-03-08T04:34:54;6.07;;;5.03;;
14100;SDS011;7127;49.372;8.166;2024-03-08T04:37:21;8.60;;;6.60;;
14100;SDS011;7127;49.372;8.166;2024-03-08T04:39:50;7.97;;;5.80;;
14100;SDS011;7127;49.372;8.166;2024-03-08T04:42:17;7.67;;;5.93;;
14100;SDS011;7127;49.372;8.166;2024-03-08T04:44:44;7.13;;;5.60;;
14100;SDS011;7127;49.372;8.166;2024-03-08T04:47:11;7.70;;;5.87;;
14100;SDS011;7127;49.372;8.166;2024-03-08T04:49:38;5.77;;;4.77;;
14100;SDS011;7127;49.372;8.166;2024-03-08T04:52:04;6.83;;;5.53;;
14100;SDS011;7127;49.372;8.166;2024-03-08T04:54:32;7.00;;;5.50;;
14100;SDS011;7127;49.372;8.166;2024-03-08T04:57:00;8.00;;;5.57;;
14100;SDS011;7127;49.372;8.166;2024-03-08T04:59:29;7.80;;;6.27;;
14100;SDS011;7127;49.372;8.166;2024-03-08T05:01:56;8.17;;;6.67;;
14100;SDS011;7127;49.372;8.166;2024-03-08T05:04:23;7.40;;;5.80;;
14100;SDS011;7127;49.372;8.166;2024-03-08T05:06:49;5.80;;;5.10;;
14100;SDS011;7127;49.372;8.166;2024-03-08T05:09:17;7.57;;;5.90;;
14100;SDS011;7127;49.372;8.166;2024-03-08T05:11:44;7.43;;;5.83;;
14100;SDS011;7127;49.372;8.166;2024-03-08T05:14:13;8.30;;;6.43;;
14100;SDS011;7127;49.372;8.166;2024-03-08T05:16:41;8.73;;;6.83;;
14100;SDS011;7127;49.372;8.166;2024-03-08T05:19:08;7.00;;;5.67;;
14100;SDS011;7127;49.372;8.166;2024-03-08T05:21:35;8.03;;;6.67;;
14100;SDS011;7127;49.372;8.166;2024-03-08T05:24:02;7.47;;;6.03;;
14100;SDS011;7127;49.372;8.166;2024-03-08T05:26:30;7.60;;;5.70;;
14100;SDS011;7127;49.372;8.166;2024-03-08T05:28:58;9.67;;;7.03;;
14100;SDS011;7127;49.372;8.166;2024-03-08T05:31:27;8.63;;;6.10;;
14100;SDS011;7127;49.372;8.166;2024-03-08T05:33:54;6.77;;;5.47;;
14100;SDS011;7127;49.372;8.166;2024-03-08T05:36:21;8.50;;;6.37;;
14100;SDS011;7127;49.372;8.166;2024-03-08T05:38:48;7.03;;;5.67;;
14100;SDS011;7127;49.372;8.166;2024-03-08T05:41:15;7.03;;;5.70;;
14100;SDS011;7127;49.372;8.166;2024-03-08T05:43:42;6.60;;;5.67;;
14100;SDS011;7127;49.372;8.166;2024-03-08T05:46:09;7.90;;;5.67;;
14100;SDS011;7127;49.372;8.166;2024-03-08T05:48:38;8.20;;;6.63;;
14100;SDS011;7127;49.372;8.166;2024-03-08T05:51:05;8.00;;;6.57;;
14100;SDS011;7127;49.372;8.166;2024-03-08T05:53:31;8.87;;;7.17;;
14100;SDS011;7127;49.372;8.166;2024-03-08T05:55:58;11.10;;;7.97;;
14100;SDS011;7127;49.372;8.166;2024-03-08T05:58:27;8.90;;;7.23;;
14100;SDS011;7127;49.372;8.166;2024-03-08T06:00:55;11.90;;;7.87;;
14100;SDS011;7127;49.372;8.166;2024-03-08T06:03:21;10.40;;;7.83;;
14100;SDS011;7127;49.372;8.166;2024-03-08T06:05:50;8.37;;;6.83;;
14100;SDS011;7127;49.372;8.166;2024-03-08T06:08:16;8.80;;;6.57;;
14100;SDS011;7127;49.372;8.166;2024-03-08T06:10:43;10.93;;;8.17;;
14100;SDS011;7127;49.372;8.166;2024-03-08T06:13:13;7.87;;;6.47;;
14100;SDS011;7127;49.372;8.166;2024-03-08T06:15:40;9.70;;;6.93;;
14100;SDS011;7127;49.372;8.166;2024-03-08T06:18:07;9.40;;;7.27;;
14100;SDS011;7127;49.372;8.166;2024-03-08T06:20:35;9.43;;;7.03;;
14100;SDS011;7127;49.372;8.166;2024-03-08T06:23:04;9.77;;;7.30;;
14100;SDS011;7127;49.372;8.166;2024-03-08T06:25:31;8.23;;;6.43;;
14100;SDS011;7127;49.372;8.166;2024-03-08T06:27:58;7.53;;;6.00;;
14100;SDS011;7127;49.372;8.166;2024-03-08T06:30:24;7.30;;;5.63;;
14100;SDS011;7127;49.372;8.166;2024-03-08T06:32:51;8.07;;;6.23;;
14100;SDS011;7127;49.372;8.166;2024-03-08T06:35:18;8.07;;;6.20;;
14100;SDS011;7127;49.372;8.166;2024-03-08T06:37:45;7.67;;;6.27;;
14100;SDS011;7127;49.372;8.166;2024-03-08T06:40:13;8.07;;;6.00;;
14100;SDS011;7127;49.372;8.166;2024-03-08T06:42:40;7.90;;;5.97;;
14100;SDS011;7127;49.372;8.166;2024-03-08T06:45:08;9.27;;;6.63;;
14100;SDS011;7127;49.372;8.166;2024-03-08T06:47:35;9.20;;;7.00;;
14100;SDS011;7127;49.372;8.166;2024-03-08T06:50:02;8.47;;;6.80;;
14100;SDS011;7127;49.372;8.166;2024-03-08T06:52:30;8.17;;;6.63;;
14100;SDS011;7127;49.372;8.166;2024-03-08T06:54:58;8.10;;;6.60;;
14100;SDS011;7127;49.372;8.166;2024-03-08T06:57:28;11.50;;;7.77;;
14100;SDS011;7127;49.372;8.166;2024-03-08T06:59:55;8.63;;;6.73;;
14100;SDS011;7127;49.372;8.166;2024-03-08T07:02:22;9.63;;;7.20;;
14100;SDS011;7127;49.372;8.166;2024-03-08T07:04:50;8.47;;;6.60;;
14100;SDS011;7127;49.372;8.166;2024-03-08T07:07:18;7.97;;;6.53;;
14100;SDS011;7127;49.372;8.166;2024-03-08T07:09:45;9.00;;;6.23;;
14100;SDS011;7127;49.372;8.166;2024-03-08T07:12:14;9.90;;;7.90;;
14100;SDS011;7127;49.372;8.166;2024-03-08T07:14:42;8.03;;;6.60;;
14100;SDS011;7127;49.372;8.166;2024-03-08T07:17:10;9.27;;;6.40;;
14100;SDS011;7127;49.372;8.166;2024-03-08T07:19:37;9.00;;;7.17;;
14100;SDS011;7127;49.372;8.166;2024-03-08T07:22:04;8.70;;;7.10;;
14100;SDS011;7127;49.372;8.166;2024-03-08T07:24:33;9.40;;;6.67;;
14100;SDS011;7127;49.372;8.166;2024-03-08T07:27:15;10.47;;;7.83;;
14100;SDS011;7127;49.372;8.166;2024-03-08T07:29:43;9.43;;;7.67;;
14100;SDS011;7127;49.372;8.166;2024-03-08T07:32:11;9.60;;;7.40;;
14100;SDS011;7127;49.372;8.166;2024-03-08T07:34:43;9.70;;;7.67;;
14100;SDS011;7127;49.372;8.166;2024-03-08T07:37:10;8.47;;;7.20;;
14100;SDS011;7127;49.372;8.166;2024-03-08T07:39:37;10.03;;;7.73;;
14100;SDS011;7127;49.372;8.166;2024-03-08T07:42:04;9.67;;;8.03;;
14100;SDS011;7127;49.372;8.166;2024-03-08T07:44:31;8.97;;;7.37;;
14100;SDS011;7127;49.372;8.166;2024-03-08T07:46:59;9.87;;;7.60;;
14100;SDS011;7127;49.372;8.166;2024-03-08T07:49:26;9.50;;;7.80;;
14100;SDS011;7127;49.372;8.166;2024-03-08T07:51:53;12.20;;;8.60;;
14100;SDS011;7127;49.372;8.166;2024-03-08T07:54:19;10.07;;;7.83;;
14100;SDS011;7127;49.372;8.166;2024-03-08T07:56:46;11.27;;;7.73;;
14100;SDS011;7127;49.372;8.166;2024-03-08T07:59:13;11.40;;;8.70;;
14100;SDS011;7127;49.372;8.166;2024-03-08T08:01:40;9.43;;;7.83;;
14100;SDS011;7127;49.372;8.166;2024-03-08T08:04:08;11.20;;;9.00;;
14100;SDS011;7127;49.372;8.166;2024-03-08T08:06:37;8.80;;;7.70;;
14100;SDS011;7127;49.372;8.166;2024-03-08T08:09:06;9.63;;;7.90;;
14100;SDS011;7127;49.372;8.166;2024-03-08T08:11:39;11.90;;;8.47;;
14100;SDS011;7127;49.372;8.166;2024-03-08T08:14:06;11.10;;;8.67;;
14100;SDS011;7127;49.372;8.166;2024-03-08T08:16:34;11.13;;;9.17;;
14100;SDS011;7127;49.372;8.166;2024-03-08T08:19:01;10.90;;;7.87;;
14100;SDS011;7127;49.372;8.166;2024-03-08T08:21:33;8.83;;;7.73;;
14100;SDS011;7127;49.372;8.166;2024-03-08T08:24:01;10.23;;;8.17;;
14100;SDS011;7127;49.372;8.166;2024-03-08T08:26:28;10.17;;;8.47;;
14100;SDS011;7127;49.372;8.166;2024-03-08T08:28:55;10.27;;;8.73;;
14100;SDS011;7127;49.372;8.166;2024-03-08T08:31:22;9.07;;;7.10;;
14100;SDS011;7127;49.372;8.166;2024-03-08T08:33:49;10.77;;;8.30;;
14100;SDS011;7127;49.372;8.166;2024-03-08T08:36:19;8.77;;;7.43;;
14100;SDS011;7127;49.372;8.166;2024-03-08T08:38:47;10.40;;;7.97;;
14100;SDS011;7127;49.372;8.166;2024-03-08T08:41:13;12.07;;;8.90;;
14100;SDS011;7127;49.372;8.166;2024-03-08T08:43:42;10.00;;;7.90;;
14100;SDS011;7127;49.372;8.166;2024-03-08T08:46:09;12.10;;;9.70;;
14100;SDS011;7127;49.372;8.166;2024-03-08T08:48:38;11.73;;;8.27;;
14100;SDS011;7127;49.372;8.166;2024-03-08T08:51:06;10.73;;;8.73;;
14100;SDS011;7127;49.372;8.166;2024-03-08T08:53:37;10.57;;;8.40;;
14100;SDS011;7127;49.372;8.166;2024-03-08T08:56:07;9.63;;;7.87;;
14100;SDS011;7127;49.372;8.166;2024-03-08T08:58:34;9.47;;;7.83;;
14100;SDS011;7127;49.372;8.166;2024-03-08T09:01:01;8.53;;;7.27;;
14100;SDS011;7127;49.372;8.166;2024-03-08T09:03:28;8.90;;;7.37;;
14100;SDS011;7127;49.372;8.166;2024-03-08T09:05:55;9.07;;;7.37;;
14100;SDS011;7127;49.372;8.166;2024-03-08T09:08:23;11.27;;;8.50;;
14100;SDS011;7127;49.372;8.166;2024-03-08T09:10:55;10.37;;;8.40;;
14100;SDS011;7127;49.372;8.166;2024-03-08T09:13:23;10.97;;;8.93;;
14100;SDS011;7127;49.372;8.166;2024-03-08T09:15:50;9.70;;;7.90;;
14100;SDS011;7127;49.372;8.166;2024-03-08T09:18:17;10.30;;;8.10;;
14100;SDS011;7127;49.372;8.166;2024-03-08T09:20:44;9.07;;;7.50;;
14100;SDS011;7127;49.372;8.166;2024-03-08T09:23:12;10.33;;;8.00;;
14100;SDS011;7127;49.372;8.166;2024-03-08T09:25:40;10.37;;;7.80;;
14100;SDS011;7127;49.372;8.166;2024-03-08T09:28:07;10.80;;;8.50;;
14100;SDS011;7127;49.372;8.166;2024-03-08T09:30:43;10.17;;;8.63;;
14100;SDS011;7127;49.372;8.166;2024-03-08T09:33:11;10.23;;;8.73;;
14100;SDS011;7127;49.372;8.166;2024-03-08T09:35:42;9.93;;;8.77;;
14100;SDS011;7127;49.372;8.166;2024-03-08T09:38:10;9.67;;;7.27;;
14100;SDS011;7127;49.372;8.166;2024-03-08T09:40:38;8.03;;;6.47;;
14100;SDS011;7127;49.372;8.166;2024-03-08T09:43:05;11.07;;;8.00;;
14100;SDS011;7127;49.372;8.166;2024-03-08T09:45:32;8.80;;;7.57;;
14100;SDS011;7127;49.372;8.166;2024-03-08T09:48:04;8.93;;;6.87;;
14100;SDS011;7127;49.372;8.166;2024-03-08T09:50:33;7.60;;;6.77;;
14100;SDS011;7127;49.372;8.166;2024-03-08T09:53:00;8.43;;;7.07;;
14100;SDS011;7127;49.372;8.166;2024-03-08T09:55:27;8.33;;;6.40;;
14100;SDS011;7127;49.372;8.166;2024-03-08T09:57:59;9.70;;;7.80;;
14100;SDS011;7127;49.372;8.166;2024-03-08T10:00:52;8.20;;;6.60;;
14100;SDS011;7127;49.372;8.166;2024-03-08T10:03:19;8.63;;;7.47;;
14100;SDS011;7127;49.372;8.166;2024-03-08T10:05:47;9.53;;;7.97;;
14100;SDS011;7127;49.372;8.166;2024-03-08T10:08:14;10.90;;;8.63;;
14100;SDS011;7127;49.372;8.166;2024-03-08T10:10:40;8.80;;;7.33;;
14100;SDS011;7127;49.372;8.166;2024-03-08T10:13:08;8.83;;;7.57;;
14100;SDS011;7127;49.372;8.166;2024-03-08T10:15:37;8.90;;;7.43;;
14100;SDS011;7127;49.372;8.166;2024-03-08T10:18:07;8.40;;;6.57;;
14100;SDS011;7127;49.372;8.166;2024-03-08T10:20:35;9.73;;;7.10;;
14100;SDS011;7127;49.372;8.166;2024-03-08T10:23:02;10.17;;;7.77;;
14100;SDS011;7127;49.372;8.166;2024-03-08T10:25:30;8.70;;;7.40;;
14100;SDS011;7127;49.372;8.166;2024-03-08T10:27:56;9.23;;;6.07;;
14100;SDS011;7127;49.372;8.166;2024-03-08T10:30:23;7.57;;;6.63;;
14100;SDS011;7127;49.372;8.166;2024-03-08T10:32:50;8.53;;;7.20;;
14100;SDS011;7127;49.372;8.166;2024-03-08T10:35:19;8.27;;;7.27;;
14100;SDS011;7127;49.372;8.166;2024-03-08T10:37:46;9.77;;;8.07;;
14100;SDS011;7127;49.372;8.166;2024-03-08T10:40:15;8.47;;;7.17;;
14100;SDS011;7127;49.372;8.166;2024-03-08T10:42:47;9.20;;;6.63;;
14100;SDS011;7127;49.372;8.166;2024-03-08T10:45:20;7.37;;;6.13;;
14100;SDS011;7127;49.372;8.166;2024-03-08T10:48:01;7.13;;;5.50;;
14100;SDS011;7127;49.372;8.166;2024-03-08T10:50:48;7.47;;;6.03;;
14100;SDS011;7127;49.372;8.166;2024-03-08T10:53:17;7.23;;;6.47;;
14100;SDS011;7127;49.372;8.166;2024-03-08T10:55:46;6.53;;;5.20;;
14100;SDS011;7127;49.372;8.166;2024-03-08T10:58:14;9.03;;;7.63;;
14100;SDS011;7127;49.372;8.166;2024-03-08T11:00:42;9.23;;;7.20;;
14100;SDS011;7127;49.372;8.166;2024-03-08T11:03:11;7.57;;;6.77;;
14100;SDS011;7127;49.372;8.166;2024-03-08T11:06:15;9.07;;;7.10;;
14100;SDS011;7127;49.372;8.166;2024-03-08T11:08:43;7.57;;;5.93;;
14100;SDS011;7127;49.372;8.166;2024-03-08T11:11:24;8.30;;;7.40;;
14100;SDS011;7127;49.372;8.166;2024-03-08T11:13:55;8.60;;;6.93;;
14100;SDS011;7127;49.372;8.166;2024-03-08T11:16:38;8.37;;;6.87;;
14100;SDS011;7127;49.372;8.166;2024-03-08T11:24:52;8.70;;;7.13;;
14100;SDS011;7127;49.372;8.166;2024-03-08T11:27:20;7.70;;;6.73;;
14100;SDS011;7127;49.372;8.166;2024-03-08T11:29:58;8.60;;;7.33;;
14100;SDS011;7127;49.372;8.166;2024-03-08T11:32:44;7.47;;;6.57;;
14100;SDS011;7127;49.372;8.166;2024-03-08T11:35:17;7.10;;;6.40;;
14100;SDS011;7127;49.372;8.166;2024-03-08T11:37:46;8.40;;;7.07;;
14100;SDS011;7127;49.372;8.166;2024-03-08T11:40:14;8.50;;;6.30;;
14100;SDS011;7127;49.372;8.166;2024-03-08T11:42:44;7.30;;;6.37;;
14100;SDS011;7127;49.372;8.166;2024-03-08T11:45:12;6.73;;;5.63;;
14100;SDS011;7127;49.372;8.166;2024-03-08T11:47:41;9.37;;;7.97;;
14100;SDS011;7127;49.372;8.166;2024-03-08T11:50:07;8.50;;;7.10;;
14100;SDS011;7127;49.372;8.166;2024-03-08T11:52:37;9.87;;;7.27;;
14100;SDS011;7127;49.372;8.166;2024-03-08T11:55:06;7.30;;;6.23;;
14100;SDS011;7127;49.372;8.166;2024-03-08T11:57:33;7.97;;;7.17;;
14100;SDS011;7127;49.372;8.166;2024-03-08T12:00:00;12.70;;;7.73;;
14100;SDS011;7127;49.372;8.166;2024-03-08T12:02:31;7.57;;;6.27;;
14100;SDS011;7127;49.372;8.166;2024-03-08T12:05:00;9.77;;;7.37;;
14100;SDS011;7127;49.372;8.166;2024-03-08T12:07:28;7.77;;;6.53;;
14100;SDS011;7127;49.372;8.166;2024-03-08T12:10:18;8.73;;;7.13;;
14100;SDS011;7127;49.372;8.166;2024-03-08T12:12:47;7.97;;;6.67;;
14100;SDS011;7127;49.372;8.166;2024-03-08T12:15:16;7.93;;;6.57;;
14100;SDS011;7127;49.372;8.166;2024-03-08T12:17:44;8.43;;;6.90;;
14100;SDS011;7127;49.372;8.166;2024-03-08T12:20:14;7.67;;;6.57;;
14100;SDS011;7127;49.372;8.166;2024-03-08T12:22:42;9.00;;;7.57;;
14100;SDS011;7127;49.372;8.166;2024-03-08T12:25:09;7.67;;;6.10;;
14100;SDS011;7127;49.372;8.166;2024-03-08T12:27:38;9.37;;;7.27;;
14100;SDS011;7127;49.372;8.166;2024-03-08T12:30:15;7.90;;;6.23;;
14100;SDS011;7127;49.372;8.166;2024-03-08T12:32:50;7.57;;;6.20;;
14100;SDS011;7127;49.372;8.166;2024-03-08T12:35:21;7.80;;;6.40;;
14100;SDS011;7127;49.372;8.166;2024-03-08T12:37:50;6.60;;;5.80;;
14100;SDS011;7127;49.372;8.166;2024-03-08T12:40:18;7.80;;;6.53;;
14100;SDS011;7127;49.372;8.166;2024-03-08T12:42:47;6.97;;;5.67;;
14100;SDS011;7127;49.372;8.166;2024-03-08T12:45:14;6.77;;;6.03;;
14100;SDS011;7127;49.372;8.166;2024-03-08T12:47:41;7.50;;;6.40;;
14100;SDS011;7127;49.372;8.166;2024-03-08T12:50:09;6.80;;;5.93;;
14100;SDS011;7127;49.372;8.166;2024-03-08T12:52:36;7.73;;;6.50;;
14100;SDS011;7127;49.372;8.166;2024-03-08T12:55:03;6.67;;;5.77;;
14100;SDS011;7127;49.372;8.166;2024-03-08T12:57:32;7.00;;;5.87;;
14100;SDS011;7127;49.372;8.166;2024-03-08T13:00:01;7.20;;;6.23;;
14100;SDS011;7127;49.372;8.166;2024-03-08T13:02:29;5.90;;;5.27;;
14100;SDS011;7127;49.372;8.166;2024-03-08T13:04:57;6.47;;;5.60;;
14100;SDS011;7127;49.372;8.166;2024-03-08T13:07:24;6.10;;;4.93;;
14100;SDS011;7127;49.372;8.166;2024-03-08T13:09:51;6.80;;;5.47;;
14100;SDS011;7127;49.372;8.166;2024-03-08T13:12:19;8.20;;;5.97;;
14100;SDS011;7127;49.372;8.166;2024-03-08T13:14:46;8.07;;;6.83;;
14100;SDS011;7127;49.372;8.166;2024-03-08T13:17:15;8.90;;;7.17;;
14100;SDS011;7127;49.372;8.166;2024-03-08T13:19:43;7.53;;;6.73;;
14100;SDS011;7127;49.372;8.166;2024-03-08T13:22:10;7.93;;;7.13;;
14100;SDS011;7127;49.372;8.166;2024-03-08T13:24:38;9.57;;;8.27;;
14100;SDS011;7127;49.372;8.166;2024-03-08T13:27:06;8.37;;;7.10;;
14100;SDS011;7127;49.372;8.166;2024-03-08T13:29:44;8.03;;;6.47;;
14100;SDS011;7127;49.372;8.166;2024-03-08T13:32:12;8.43;;;6.63;;
14100;SDS011;7127;49.372;8.166;2024-03-08T13:34:41;6.43;;;5.73;;
14100;SDS011;7127;49.372;8.166;2024-03-08T13:37:08;7.73;;;6.90;;
14100;SDS011;7127;49.372;8.166;2024-03-08T13:39:36;10.20;;;8.23;;
14100;SDS011;7127;49.372;8.166;2024-03-08T13:42:08;8.63;;;7.20;;
14100;SDS011;7127;49.372;8.166;2024-03-08T13:44:37;8.80;;;7.43;;
14100;SDS011;7127;49.372;8.166;2024-03-08T13:47:05;7.20;;;6.30;;
14100;SDS011;7127;49.372;8.166;2024-03-08T13:49:32;7.30;;;6.20;;
14100;SDS011;7127;49.372;8.166;2024-03-08T13:52:00;6.00;;;5.40;;
14100;SDS011;7127;49.372;8.166;2024-03-08T13:54:27;7.80;;;6.30;;
14100;SDS011;7127;49.372;8.166;2024-03-08T13:56:56;6.90;;;6.17;;
14100;SDS011;7127;49.372;8.166;2024-03-08T13:59:23;7.40;;;6.17;;
14100;SDS011;7127;49.372;8.166;2024-03-08T14:01:54;8.47;;;6.87;;
14100;SDS011;7127;49.372;8.166;2024-03-08T14:04:21;7.37;;;6.43;;
14100;SDS011;7127;49.372;8.166;2024-03-08T14:06:49;7.37;;;6.03;;
14100;SDS011;7127;49.372;8.166;2024-03-08T14:09:18;7.23;;;5.90;;
14100;SDS011;7127;49.372;8.166;2024-03-08T14:11:44;7.07;;;5.60;;
14100;SDS011;7127;49.372;8.166;2024-03-08T14:14:11;7.13;;;6.10;;
14100;SDS011;7127;49.372;8.166;2024-03-08T14:16:38;8.63;;;6.80;;
14100;SDS011;7127;49.372;8.166;2024-03-08T14:19:05;8.90;;;6.43;;
14100;SDS011;7127;49.372;8.166;2024-03-08T14:21:35;10.83;;;8.70;;
14100;SDS011;7127;49.372;8.166;2024-03-08T14:24:04;9.10;;;7.70;;
14100;SDS011;7127;49.372;8.166;2024-03-08T14:26:33;8.70;;;7.20;;
14100;SDS011;7127;49.372;8.166;2024-03-08T14:29:01;7.70;;;6.90;;
14100;SDS011;7127;49.372;8.166;2024-03-08T14:31:30;8.33;;;7.37;;
14100;SDS011;7127;49.372;8.166;2024-03-08T14:33:56;10.30;;;7.47;;
14100;SDS011;7127;49.372;8.166;2024-03-08T14:36:24;8.37;;;6.70;;
14100;SDS011;7127;49.372;8.166;2024-03-08T14:38:51;7.20;;;6.07;;
14100;SDS011;7127;49.372;8.166;2024-03-08T14:41:18;7.70;;;6.87;;
14100;SDS011;7127;49.372;8.166;2024-03-08T14:43:46;8.77;;;6.70;;
14100;SDS011;7127;49.372;8.166;2024-03-08T14:46:13;9.20;;;7.17;;
14100;SDS011;7127;49.372;8.166;2024-03-08T14:48:42;9.33;;;7.43;;
14100;SDS011;7127;49.372;8.166;2024-03-08T14:51:09;8.53;;;7.03;;
14100;SDS011;7127;49.372;8.166;2024-03-08T14:53:39;7.03;;;6.30;;
14100;SDS011;7127;49.372;8.166;2024-03-08T14:56:06;7.90;;;6.43;;
14100;SDS011;7127;49.372;8.166;2024-03-08T14:58:34;7.43;;;6.60;;
14100;SDS011;7127;49.372;8.166;2024-03-08T15:01:04;7.67;;;6.53;;
14100;SDS011;7127;49.372;8.166;2024-03-08T15:03:34;9.03;;;7.53;;
14100;SDS011;7127;49.372;8.166;2024-03-08T15:06:02;8.13;;;6.63;;
14100;SDS011;7127;49.372;8.166;2024-03-08T15:08:33;9.00;;;7.37;;
14100;SDS011;7127;49.372;8.166;2024-03-08T15:11:00;8.67;;;7.60;;
14100;SDS011;7127;49.372;8.166;2024-03-08T15:13:27;9.80;;;7.57;;